Time;durP1;ratioP1;P1;durP2;ratioP2;P2;SDS_P1;SDS_P2;PMS_P1;PMS_P2;Temp;Humidity;BMP_temperature;BMP_pressure;BME280_temperature;BME280_humidity;BME280_pressure;Samples;Min_cycle;Max_cycle;Signal;HPM_P1;HPM_P2
2021/07/12 00:01:11;;;;;;;15.13;6.10;;;17.30;99.90;;;;;;20463131;28;20481;-47
2021/07/12 00:11:12;;;;;;;13.35;6.40;;;17.30;99.90;;;;;;20463324;28;20039;-47
2021/07/12 00:21:14;;;;;;;16.60;8.02;;;17.20;99.90;;;;;;20462571;28;20450;-47
2021/07/12 00:31:15;;;;;;;14.48;5.82;;;17.20;99.90;;;;;;20462768;28;20443;-47
2021/07/12 00:41:16;;;;;;;16.73;7.25;;;17.20;99.90;;;;;;20463373;28;20478;-47
2021/07/12 00:51:17;;;;;;;17.75;6.55;;;17.10;99.90;;;;;;20462583;28;20304;-47
2021/07/12 01:01:19;;;;;;;16.73;7.78;;;17.10;99.90;;;;;;20472696;28;20437;-47
2021/07/12 01:11:31;;;;;;;17.40;7.82;;;17.10;99.90;;;;;;20474163;28;20036;-47
2021/07/12 01:22:14;;;;;;;14.00;5.85;;;17.10;99.90;;;;;;20475770;28;20057;-46
2021/07/12 01:32:40;;;;;;;15.73;6.13;;;17.10;99.90;;;;;;20473428;28;20529;-47
2021/07/12 01:42:44;;;;;;;12.85;5.82;;;17.00;99.90;;;;;;20475833;28;20451;-47
2021/07/12 01:53:10;;;;;;;18.25;6.80;;;16.90;99.90;;;;;;20471590;28;20106;-46
2021/07/12 02:03:15;;;;;;;12.30;5.53;;;16.90;99.90;;;;;;20471481;28;20414;-47
2021/07/12 02:13:18;;;;;;;14.50;5.80;;;16.80;99.90;;;;;;20478056;28;20078;-47
2021/07/12 02:23:21;;;;;;;16.10;6.07;;;16.70;99.90;;;;;;20470926;28;20161;-47
2021/07/12 02:33:23;;;;;;;17.13;5.55;;;16.60;99.90;;;;;;20470448;28;20396;-46
2021/07/12 02:43:25;;;;;;;15.95;6.32;;;16.60;99.90;;;;;;20468844;28;20407;-47
2021/07/12 02:53:32;;;;;;;16.10;6.43;;;16.50;99.90;;;;;;20467876;28;20336;-46
2021/07/12 03:03:33;;;;;;;14.10;5.78;;;16.40;99.90;;;;;;20468327;28;20427;-46
2021/07/12 03:14:00;;;;;;;17.80;7.40;;;16.30;99.90;;;;;;20468547;28;20478;-47
2021/07/12 03:24:02;;;;;;;15.20;7.55;;;16.30;99.90;;;;;;20465088;28;20510;-47
2021/07/12 03:34:03;;;;;;;18.20;8.02;;;16.40;99.90;;;;;;20465482;28;20494;-47
2021/07/12 03:44:08;;;;;;;18.50;6.72;;;16.40;99.90;;;;;;20465912;28;20483;-46
2021/07/12 03:54:09;;;;;;;17.38;7.32;;;16.40;99.90;;;;;;20462614;28;20500;-47
2021/07/12 04:04:11;;;;;;;18.27;6.63;;;16.50;99.90;;;;;;20463858;28;20480;-47
2021/07/12 04:14:13;;;;;;;13.15;6.85;;;16.60;99.90;;;;;;20463999;28;20502;-46
2021/07/12 04:24:14;;;;;;;17.83;6.45;;;16.70;99.90;;;;;;20457555;28;20399;-46
2021/07/12 04:34:15;;;;;;;17.77;7.45;;;16.80;99.90;;;;;;20464905;28;20507;-46
2021/07/12 04:44:17;;;;;;;16.63;5.90;;;16.80;99.90;;;;;;20477008;28;20505;-47
2021/07/12 04:54:18;;;;;;;16.58;6.68;;;16.90;99.90;;;;;;20477012;28;20444;-46
2021/07/12 05:04:20;;;;;;;14.48;6.88;;;17.10;99.90;;;;;;20475063;28;20471;-46
2021/07/12 05:14:23;;;;;;;15.18;6.05;;;17.20;99.90;;;;;;20476247;28;20376;-47
2021/07/12 05:24:25;;;;;;;14.68;6.28;;;17.30;99.90;;;;;;20474049;28;20046;-47
2021/07/12 05:34:26;;;;;;;14.43;7.05;;;17.40;99.90;;;;;;20473712;28;20384;-47
2021/07/12 05:44:27;;;;;;;17.20;6.88;;;17.60;99.90;;;;;;20470008;28;20550;-47
2021/07/12 05:54:29;;;;;;;13.93;6.40;;;17.80;99.90;;;;;;20473363;28;20558;-47
2021/07/12 06:04:30;;;;;;;11.68;5.97;;;17.90;99.90;;;;;;20466500;28;20591;-46
2021/07/12 06:14:31;;;;;;;15.23;7.15;;;17.90;99.90;;;;;;20471614;28;20407;-47
2021/07/12 06:24:33;;;;;;;10.73;4.57;;;18.30;99.90;;;;;;20462446;28;20801;-47
2021/07/12 06:34:35;;;;;;;13.10;5.95;;;18.60;99.90;;;;;;20468040;28;20932;-47
2021/07/12 06:44:36;;;;;;;10.05;5.13;;;19.10;99.90;;;;;;20439843;28;20053;-45
2021/07/12 06:54:38;;;;;;;8.18;4.38;;;19.70;99.90;;;;;;20409315;28;20390;-47
2021/07/12 07:04:41;;;;;;;8.88;3.75;;;20.30;99.90;;;;;;20457947;28;20458;-45
2021/07/12 07:14:42;;;;;;;8.25;3.25;;;20.70;99.90;;;;;;20447008;28;20043;-45
2021/07/12 07:24:44;;;;;;;5.47;2.88;;;20.90;99.90;;;;;;20443038;28;20039;-47
2021/07/12 07:34:45;;;;;;;5.68;2.22;;;21.20;99.90;;;;;;20438710;28;20391;-47
2021/07/12 07:44:46;;;;;;;4.18;2.00;;;21.80;99.90;;;;;;20439515;28;20443;-47
2021/07/12 07:54:48;;;;;;;4.07;1.70;;;21.80;99.90;;;;;;20457036;28;20078;-47
2021/07/12 08:04:50;;;;;;;2.92;1.92;;;21.90;99.90;;;;;;20461498;28;20043;-47
2021/07/12 08:14:51;;;;;;;3.03;1.35;;;21.80;99.90;;;;;;20441151;28;20818;-47
2021/07/12 08:24:52;;;;;;;3.20;1.63;;;22.10;99.90;;;;;;20436598;28;20055;-47
2021/07/12 08:34:54;;;;;;;5.55;2.05;;;22.40;99.90;;;;;;20443132;28;20039;-47
2021/07/12 08:44:56;;;;;;;5.20;2.20;;;22.60;99.90;;;;;;20441976;28;20395;-47
2021/07/12 08:54:57;;;;;;;4.45;1.92;;;22.80;99.90;;;;;;20438169;28;20470;-47
2021/07/12 09:04:58;;;;;;;3.20;1.55;;;23.30;99.90;;;;;;20442222;28;20586;-48
2021/07/12 09:15:05;;;;;;;3.20;1.58;;;23.60;99.90;;;;;;20445667;28;20495;-47
2021/07/12 09:25:11;;;;;;;3.53;1.77;;;23.80;99.90;;;;;;20462086;28;20384;-47
2021/07/12 09:35:16;;;;;;;2.75;1.25;;;23.80;99.90;;;;;;20458218;28;20472;-47
2021/07/12 09:45:19;;;;;;;3.38;2.03;;;24.40;99.90;;;;;;20444982;28;20435;-47
2021/07/12 09:55:23;;;;;;;3.28;1.35;;;24.90;99.90;;;;;;20404243;28;20572;-47
2021/07/12 10:05:25;;;;;;;2.95;1.35;;;24.70;99.90;;;;;;20432878;28;20440;-47
2021/07/12 10:15:26;;;;;;;2.58;1.20;;;24.60;99.90;;;;;;20446412;28;20490;-48
2021/07/12 10:25:29;;;;;;;3.15;1.40;;;24.40;99.90;;;;;;20466829;28;20418;-47
2021/07/12 10:35:49;;;;;;;4.05;1.90;;;24.30;99.90;;;;;;20464768;28;20534;-47
2021/07/12 10:45:51;;;;;;;5.63;3.15;;;24.10;99.90;;;;;;20452306;28;20062;-47
2021/07/12 10:55:58;;;;;;;4.72;2.58;;;24.40;99.90;;;;;;20463395;28;20406;-47
2021/07/12 11:05:59;;;;;;;;;;;24.80;99.90;;;;;;20458893;28;20637;-47
2021/07/12 11:16:15;;;;;;;5.93;2.72;;;24.70;99.90;;;;;;20412633;28;20009;-47
2021/07/12 11:26:27;;;;;;;3.65;1.98;;;24.80;99.90;;;;;;20464247;28;20499;-48
2021/07/12 11:36:29;;;;;;;2.78;1.40;;;25.00;99.90;;;;;;20461805;28;20047;-48
2021/07/12 11:46:32;;;;;;;4.13;2.00;;;25.60;99.90;;;;;;20467222;28;20059;-47
2021/07/12 11:56:33;;;;;;;3.90;1.98;;;25.90;99.90;;;;;;20464654;28;20506;-47
2021/07/12 12:06:34;;;;;;;3.65;2.20;;;25.90;99.90;;;;;;20461347;28;20405;-47
2021/07/12 12:16:35;;;;;;;2.47;1.52;;;26.40;99.90;;;;;;20442571;28;20486;-48
2021/07/12 12:26:37;;;;;;;4.85;1.58;;;26.00;99.90;;;;;;20444029;28;20597;-48
2021/07/12 12:36:42;;;;;;;2.63;1.67;;;25.70;99.90;;;;;;20438730;28;20049;-48
2021/07/12 12:46:57;;;;;;;4.05;1.63;;;25.20;99.90;;;;;;20442638;28;20541;-48
2021/07/12 12:57:00;;;;;;;3.58;1.95;;;25.00;99.90;;;;;;20449812;28;20129;-48
2021/07/12 13:07:02;;;;;;;2.92;1.73;;;25.00;99.90;;;;;;20441944;28;20616;-48
2021/07/12 13:17:14;;;;;;;2.50;1.63;;;24.80;99.90;;;;;;20417563;28;20649;-48
2021/07/12 13:27:30;;;;;;;2.38;1.27;;;24.60;99.90;;;;;;20438529;28;20386;-48
2021/07/12 13:37:31;;;;;;;3.53;1.90;;;24.30;99.90;;;;;;20443131;28;20055;-48
2021/07/12 13:47:32;;;;;;;4.82;1.70;;;24.50;99.90;;;;;;20443276;28;20107;-48
2021/07/12 13:57:34;;;;;;;3.15;1.88;;;24.50;99.90;;;;;;20446259;28;20031;-48
2021/07/12 14:07:37;;;;;;;4.25;2.42;;;24.90;99.90;;;;;;20444778;28;20077;-48
2021/07/12 14:17:39;;;;;;;2.97;1.77;;;25.60;99.90;;;;;;20452494;28;20495;-49
2021/07/12 14:27:42;;;;;;;3.13;1.73;;;26.10;99.90;;;;;;20446552;28;20042;-49
2021/07/12 14:37:43;;;;;;;3.25;2.03;;;26.10;99.90;;;;;;20465440;28;20323;-49
2021/07/12 14:47:44;;;;;;;3.22;1.88;;;25.90;99.90;;;;;;20459436;28;20569;-49
2021/07/12 14:57:45;;;;;;;5.38;1.48;;;25.60;99.90;;;;;;20470555;28;20042;-49
2021/07/12 15:07:46;;;;;;;2.85;1.52;;;25.30;99.90;;;;;;20452239;28;20570;-49
2021/07/12 15:17:48;;;;;;;3.58;1.85;;;25.40;99.90;;;;;;20459696;28;20119;-49
2021/07/12 15:27:50;;;;;;;2.45;1.48;;;25.30;99.90;;;;;;20456298;28;20041;-49
2021/07/12 15:37:51;;;;;;;4.10;1.95;;;25.00;99.90;;;;;;20443496;28;20062;-49
2021/07/12 15:47:52;;;;;;;3.58;1.88;;;24.80;99.90;;;;;;20442555;28;20054;-49
2021/07/12 15:57:54;;;;;;;3.95;2.15;;;25.00;99.90;;;;;;20439572;28;20047;-49
2021/07/12 16:07:56;;;;;;;3.88;2.40;;;24.90;99.90;;;;;;20467663;28;20897;-49
2021/07/12 16:17:57;;;;;;;3.53;2.05;;;24.90;99.90;;;;;;20458390;28;20134;-49
2021/07/12 16:28:01;;;;;;;3.58;2.25;;;24.90;99.90;;;;;;20456250;28;20046;-49
2021/07/12 16:38:02;;;;;;;4.65;2.00;;;24.80;99.90;;;;;;20472450;28;20098;-49
2021/07/12 16:48:04;;;;;;;3.90;2.13;;;24.70;99.90;;;;;;20460023;28;20043;-49
2021/07/12 16:58:05;;;;;;;4.07;2.17;;;24.70;99.90;;;;;;20453928;28;20043;-49
2021/07/12 17:08:06;;;;;;;4.70;2.15;;;24.70;99.90;;;;;;20461076;28;20077;-49
2021/07/12 17:18:07;;;;;;;3.97;2.03;;;24.80;99.90;;;;;;20459787;28;20047;-49
2021/07/12 17:28:09;;;;;;;4.72;2.15;;;24.70;99.90;;;;;;20456435;28;20048;-49
2021/07/12 17:38:10;;;;;;;4.70;2.42;;;24.60;99.90;;;;;;20458930;28;22415;-49
2021/07/12 17:48:11;;;;;;;5.78;2.53;;;24.50;99.90;;;;;;20458863;28;20050;-49
2021/07/12 17:58:12;;;;;;;4.50;2.78;;;24.40;99.90;;;;;;20455753;28;20040;-49
2021/07/12 18:08:13;;;;;;;3.65;1.67;;;24.20;99.90;;;;;;20453876;28;20390;-49
2021/07/12 18:18:16;;;;;;;2.83;1.13;;;24.20;99.90;;;;;;20456079;28;20239;-49
2021/07/12 18:28:17;;;;;;;2.15;0.80;;;23.50;99.90;;;;;;20471939;28;20057;-49
2021/07/12 18:38:18;;;;;;;2.28;0.85;;;22.80;99.90;;;;;;20448076;28;20043;-49
2021/07/12 18:48:19;;;;;;;2.00;0.70;;;22.30;99.90;;;;;;20457013;28;20690;-49
2021/07/12 18:58:21;;;;;;;1.65;0.77;;;22.10;99.90;;;;;;20462694;28;20067;-50
2021/07/12 19:08:23;;;;;;;2.28;0.70;;;21.60;99.90;;;;;;20454918;28;20561;-49
2021/07/12 19:18:24;;;;;;;1.83;0.90;;;21.40;99.90;;;;;;20448458;28;20570;-49
2021/07/12 19:28:26;;;;;;;3.55;1.05;;;21.40;99.90;;;;;;20461831;28;20050;-49
2021/07/12 19:38:28;;;;;;;3.15;1.25;;;21.40;99.90;;;;;;20461365;28;20151;-49
2021/07/12 19:48:29;;;;;;;1.73;0.90;;;21.40;99.90;;;;;;20461172;28;20046;-49
2021/07/12 19:58:31;;;;;;;3.20;1.10;;;21.30;99.90;;;;;;20458342;28;20377;-49
2021/07/12 20:08:32;;;;;;;1.65;0.93;;;21.20;99.90;;;;;;20450078;28;20046;-49
2021/07/12 20:18:34;;;;;;;2.28;1.23;;;20.90;99.90;;;;;;20390548;28;20071;-49
2021/07/12 20:28:35;;;;;;;2.17;1.20;;;20.70;99.90;;;;;;20439270;28;20078;-49
2021/07/12 20:38:38;;;;;;;3.95;1.33;;;20.60;99.90;;;;;;20436603;28;20065;-49
2021/07/12 20:48:39;;;;;;;2.70;1.30;;;20.40;99.90;;;;;;20430574;28;20042;-49
2021/07/12 20:58:40;;;;;;;7.20;1.75;;;20.30;99.90;;;;;;20423472;28;20058;-49
2021/07/12 21:08:41;;;;;;;3.45;1.70;;;20.10;99.90;;;;;;20441889;28;20079;-49
2021/07/12 21:18:46;;;;;;;2.85;1.30;;;20.00;99.90;;;;;;20455165;28;20042;-49
2021/07/12 21:28:48;;;;;;;4.65;1.48;;;20.00;99.90;;;;;;20453065;28;20051;-49
2021/07/12 21:38:49;;;;;;;3.17;1.83;;;19.90;99.90;;;;;;20453234;28;20043;-49
2021/07/12 21:48:50;;;;;;;3.13;1.73;;;19.80;99.90;;;;;;20450748;28;20054;-49
2021/07/12 21:58:51;;;;;;;3.33;1.60;;;19.80;99.90;;;;;;20451799;28;20138;-49
2021/07/12 22:08:53;;;;;;;3.25;1.55;;;19.70;99.90;;;;;;20448127;28;20082;-49
2021/07/12 22:18:54;;;;;;;2.45;1.45;;;19.60;99.90;;;;;;20454877;28;20031;-47
2021/07/12 22:28:58;;;;;;;4.03;1.83;;;19.50;99.90;;;;;;20464238;28;20134;-49
2021/07/12 22:39:00;;;;;;;2.67;1.42;;;19.30;99.90;;;;;;20462935;28;20526;-49
2021/07/12 22:49:04;;;;;;;3.88;1.90;;;19.20;99.90;;;;;;20461273;28;20115;-49
2021/07/12 22:59:05;;;;;;;4.22;2.20;;;19.10;99.90;;;;;;20461560;28;20031;-49
2021/07/12 23:09:06;;;;;;;3.60;1.67;;;19.20;99.90;;;;;;20457840;28;20050;-49
2021/07/12 23:19:08;;;;;;;3.92;1.63;;;19.20;99.90;;;;;;20460269;28;20039;-49
2021/07/12 23:29:09;;;;;;;3.60;1.80;;;19.20;99.90;;;;;;20456214;28;20051;-49
2021/07/12 23:39:10;;;;;;;4.53;2.20;;;19.10;99.90;;;;;;20458399;28;20145;-49
2021/07/12 23:49:11;;;;;;;5.90;2.63;;;19.10;99.90;;;;;;20453875;28;20055;-49
2021/07/12 23:59:12;;;;;;;3.35;1.42;;;19.00;99.90;;;;;;20451262;28;20070;-49
